Time;durP1;ratioP1;P1;durP2;ratioP2;P2;SDS_P1;SDS_P2;PMS_P1;PMS_P2;Temp;Humidity;BMP_temperature;BMP_pressure;BME280_temperature;BME280_humidity;BME280_pressure;Samples;Min_cycle;Max_cycle;Signal;HPM_P1;HPM_P2
2022/07/18 00:01:57;;;;;;;7.65;2.88;;;17.50;82.20;;;;;;5069947;28;20097;-78
2022/07/18 00:04:22;;;;;;;8.07;3.80;;;17.50;82.20;;;;;;5069972;28;20032;-80
2022/07/18 00:06:48;;;;;;;5.20;2.85;;;17.50;82.60;;;;;;5069959;28;20028;-79
2022/07/18 00:09:14;;;;;;;6.60;2.50;;;17.40;82.80;;;;;;5071769;28;20532;-78
2022/07/18 00:11:39;;;;;;;6.22;3.20;;;17.40;83.30;;;;;;5053423;28;20043;-79
2022/07/18 00:14:05;;;;;;;7.15;3.25;;;17.40;83.50;;;;;;5074109;28;20039;-77
2022/07/18 00:16:31;;;;;;;11.23;2.85;;;17.30;83.60;;;;;;5072445;28;20043;-79
2022/07/18 00:18:58;;;;;;;5.65;3.10;;;17.30;84.00;;;;;;5071090;28;20443;-81
2022/07/18 00:21:26;;;;;;;4.82;2.70;;;17.30;84.40;;;;;;5051509;28;20387;-78
2022/07/18 00:23:51;;;;;;;5.65;2.80;;;17.30;85.00;;;;;;5069821;28;20025;-80
2022/07/18 00:26:17;;;;;;;7.40;3.53;;;17.20;85.20;;;;;;5051016;28;20368;-78
2022/07/18 00:28:42;;;;;;;5.32;2.90;;;17.20;85.40;;;;;;5051991;28;20036;-78
2022/07/18 00:31:08;;;;;;;6.15;3.20;;;17.20;85.30;;;;;;5069309;28;20120;-82
2022/07/18 00:33:33;;;;;;;8.02;3.30;;;17.10;85.40;;;;;;5069485;28;20040;-78
2022/07/18 00:35:59;;;;;;;5.28;2.60;;;17.10;85.40;;;;;;5050853;28;20031;-78
2022/07/18 00:38:25;;;;;;;5.07;2.80;;;17.00;85.40;;;;;;5051525;28;20035;-77
2022/07/18 00:40:50;;;;;;;5.20;2.42;;;17.00;85.80;;;;;;5051283;28;20040;-77
2022/07/18 00:43:16;;;;;;;6.32;2.38;;;17.00;86.10;;;;;;5051436;28;20410;-77
2022/07/18 00:45:46;;;;;;;6.05;2.83;;;17.00;86.40;;;;;;5051024;28;20137;-80
2022/07/18 00:48:12;;;;;;;6.65;2.72;;;16.90;86.60;;;;;;5069631;28;20025;-78
2022/07/18 00:50:38;;;;;;;7.80;2.75;;;16.90;86.70;;;;;;5051123;28;20051;-78
2022/07/18 00:53:05;;;;;;;5.45;2.63;;;16.90;86.80;;;;;;5051326;28;20021;-78
2022/07/18 00:55:31;;;;;;;5.55;3.17;;;16.80;87.40;;;;;;5072499;28;20020;-78
2022/07/18 00:57:57;;;;;;;5.55;2.88;;;16.80;87.90;;;;;;5073345;28;20031;-79
2022/07/18 01:03:07;;;;;;;6.05;2.70;;;16.70;88.10;;;;;;5073355;28;20505;-77
2022/07/18 01:05:33;;;;;;;6.32;2.60;;;16.70;88.60;;;;;;5072029;28;20037;-77
2022/07/18 01:07:58;;;;;;;3.03;2.00;;;16.70;89.10;;;;;;5073267;28;20032;-78
2022/07/18 01:10:24;;;;;;;4.65;1.85;;;16.60;89.20;;;;;;5072403;28;20040;-79
2022/07/18 01:12:49;;;;;;;4.00;1.77;;;16.60;89.40;;;;;;5054995;28;20440;-76
2022/07/18 01:15:15;;;;;;;4.70;2.15;;;16.50;89.80;;;;;;5072284;28;20428;-79
2022/07/18 01:17:40;;;;;;;5.15;2.33;;;16.50;90.00;;;;;;5072707;28;20075;-81
2022/07/18 01:20:06;;;;;;;5.78;2.28;;;16.50;90.20;;;;;;5072814;28;20032;-80
2022/07/18 01:22:32;;;;;;;4.07;2.30;;;16.50;90.40;;;;;;5054306;28;20035;-78
2022/07/18 01:24:58;;;;;;;5.50;2.22;;;16.40;90.50;;;;;;5054685;28;20094;-79
2022/07/18 01:27:23;;;;;;;9.30;2.95;;;16.40;90.80;;;;;;5071926;28;20059;-80
2022/07/18 01:29:51;;;;;;;5.18;2.25;;;16.40;91.00;;;;;;5054827;28;20024;-77
2022/07/18 01:32:17;;;;;;;3.28;2.00;;;16.40;91.00;;;;;;5053889;28;20029;-80
2022/07/18 01:34:45;;;;;;;6.78;2.25;;;16.30;91.00;;;;;;5054435;28;20024;-78
2022/07/18 01:37:11;;;;;;;5.70;2.28;;;16.30;91.00;;;;;;5071732;28;20070;-77
2022/07/18 01:39:37;;;;;;;5.75;2.00;;;16.30;91.10;;;;;;5072532;28;20032;-78
2022/07/18 01:42:05;;;;;;;5.00;2.60;;;16.30;91.10;;;;;;5072980;28;20041;-78
2022/07/18 01:44:32;;;;;;;5.35;2.60;;;16.20;91.20;;;;;;5072397;28;20115;-80
2022/07/18 01:46:57;;;;;;;5.10;2.58;;;16.20;91.40;;;;;;5054279;28;20111;-81
2022/07/18 01:49:24;;;;;;;4.18;2.45;;;16.20;91.40;;;;;;5072407;28;20546;-77
2022/07/18 01:51:52;;;;;;;3.95;2.40;;;16.20;91.50;;;;;;5054114;28;20044;-79
2022/07/18 01:54:22;;;;;;;3.90;2.33;;;16.10;91.60;;;;;;5053752;28;20039;-76
2022/07/18 01:56:48;;;;;;;5.30;2.35;;;16.10;91.70;;;;;;5053619;28;20025;-79
2022/07/18 01:59:13;;;;;;;3.03;1.65;;;16.10;91.80;;;;;;5054197;28;20089;-80
2022/07/18 02:01:39;;;;;;;3.10;2.17;;;16.00;91.90;;;;;;5053769;28;20036;-79
2022/07/18 02:04:04;;;;;;;9.25;2.55;;;16.00;92.00;;;;;;5054267;28;20063;-79
2022/07/18 02:06:30;;;;;;;6.10;2.40;;;16.00;92.10;;;;;;5070134;28;20021;-79
2022/07/18 02:08:56;;;;;;;7.20;2.63;;;16.00;92.10;;;;;;5071712;28;20039;-83
2022/07/18 02:11:21;;;;;;;3.35;2.38;;;15.90;92.20;;;;;;5053280;28;20071;-83
2022/07/18 02:13:47;;;;;;;6.60;3.00;;;15.90;92.20;;;;;;5054225;28;20520;-81
2022/07/18 02:16:13;;;;;;;8.48;2.60;;;15.90;92.40;;;;;;5071522;28;20028;-82
2022/07/18 02:18:38;;;;;;;7.40;2.67;;;15.80;92.50;;;;;;5053725;28;20028;-79
2022/07/18 02:21:04;;;;;;;4.53;2.20;;;15.80;92.50;;;;;;5071502;28;20576;-79
2022/07/18 02:23:29;;;;;;;4.35;3.00;;;15.80;92.60;;;;;;5071435;28;20490;-82
2022/07/18 02:25:55;;;;;;;6.57;2.55;;;15.80;92.70;;;;;;5053157;28;20024;-80
2022/07/18 02:28:21;;;;;;;4.90;2.63;;;15.70;92.80;;;;;;5053471;28;20490;-80
2022/07/18 02:30:50;;;;;;;7.57;2.85;;;15.70;92.70;;;;;;5071300;28;20036;-81
2022/07/18 02:33:16;;;;;;;4.47;2.47;;;15.70;92.80;;;;;;5071305;28;20459;-80
2022/07/18 02:35:42;;;;;;;7.70;2.47;;;15.70;92.90;;;;;;5070863;28;20039;-80
2022/07/18 02:38:07;;;;;;;6.53;2.63;;;15.60;93.10;;;;;;5053156;28;20446;-79
2022/07/18 02:40:33;;;;;;;5.75;2.60;;;15.60;93.20;;;;;;5053170;28;20145;-78
2022/07/18 02:42:59;;;;;;;5.03;2.55;;;15.60;93.30;;;;;;5053341;28;20036;-79
2022/07/18 02:45:25;;;;;;;5.95;2.08;;;15.60;93.40;;;;;;5052555;28;20028;-78
2022/07/18 02:47:51;;;;;;;5.22;2.20;;;15.50;93.50;;;;;;5053458;28;20070;-78
2022/07/18 02:50:17;;;;;;;3.92;2.15;;;15.50;93.60;;;;;;5052804;28;20044;-79
2022/07/18 02:52:43;;;;;;;6.38;2.35;;;15.50;93.60;;;;;;5070654;28;20036;-78
2022/07/18 02:55:10;;;;;;;5.00;2.08;;;15.50;93.70;;;;;;5052965;28;20437;-81
2022/07/18 02:57:36;;;;;;;6.25;2.53;;;15.50;93.60;;;;;;5052234;28;20530;-82
2022/07/18 03:00:04;;;;;;;3.55;2.05;;;15.50;93.80;;;;;;5070710;28;20032;-79
2022/07/18 03:02:30;;;;;;;9.18;2.47;;;15.50;93.50;;;;;;5052539;28;20111;-81
2022/07/18 03:04:55;;;;;;;4.90;2.40;;;15.40;93.50;;;;;;5052924;28;20111;-78
2022/07/18 03:07:21;;;;;;;5.85;2.47;;;15.40;93.60;;;;;;5069736;28;20082;-78
2022/07/18 03:09:46;;;;;;;6.28;3.15;;;15.40;93.60;;;;;;5070827;28;20071;-79
2022/07/18 03:12:12;;;;;;;8.20;2.78;;;15.30;93.60;;;;;;5063863;28;20048;-79
2022/07/18 03:14:37;;;;;;;5.25;3.15;;;15.30;93.70;;;;;;5060855;28;20143;-79
2022/07/18 03:17:03;;;;;;;5.38;2.67;;;15.30;93.80;;;;;;5068233;28;20087;-79
2022/07/18 03:19:28;;;;;;;7.60;2.75;;;15.30;93.90;;;;;;5069214;28;20074;-78
2022/07/18 03:21:54;;;;;;;6.03;2.15;;;15.30;93.90;;;;;;5070826;28;20036;-79
2022/07/18 03:24:19;;;;;;;9.45;3.05;;;15.20;93.80;;;;;;5070252;28;20032;-78
2022/07/18 03:26:45;;;;;;;6.28;3.08;;;15.20;93.90;;;;;;5070471;28;20025;-80
2022/07/18 03:29:11;;;;;;;7.07;2.67;;;15.20;94.10;;;;;;5052549;28;20477;-79
2022/07/18 03:31:37;;;;;;;5.72;2.42;;;15.20;94.10;;;;;;5070931;28;20033;-81
2022/07/18 03:34:03;;;;;;;3.67;2.25;;;15.10;94.10;;;;;;5054486;28;20035;-79
2022/07/18 03:36:29;;;;;;;5.60;2.83;;;15.20;94.20;;;;;;5072589;28;20039;-78
2022/07/18 03:38:54;;;;;;;10.60;3.33;;;15.10;94.20;;;;;;5052985;28;20075;-81
2022/07/18 03:41:20;;;;;;;5.45;2.72;;;15.20;94.30;;;;;;5052205;28;20449;-79
2022/07/18 03:43:45;;;;;;;4.90;2.20;;;15.10;94.40;;;;;;5070567;28;20024;-80
2022/07/18 03:46:11;;;;;;;8.98;3.03;;;15.10;94.40;;;;;;5051583;28;20048;-80
2022/07/18 03:48:36;;;;;;;5.88;2.40;;;15.10;94.50;;;;;;5052264;28;20064;-83
2022/07/18 03:51:03;;;;;;;4.93;2.95;;;15.20;94.50;;;;;;5051823;28;20036;-82
2022/07/18 03:53:30;;;;;;;6.13;3.15;;;15.20;94.60;;;;;;5069828;28;20086;-78
2022/07/18 03:55:55;;;;;;;4.38;2.38;;;15.20;94.60;;;;;;5051338;28;20028;-78
2022/07/18 03:58:21;;;;;;;5.63;2.53;;;15.20;94.60;;;;;;5070412;28;20028;-79
2022/07/18 04:00:47;;;;;;;5.97;3.20;;;15.20;94.60;;;;;;5069664;28;20039;-79
2022/07/18 04:03:12;;;;;;;5.93;2.60;;;15.20;94.70;;;;;;5052001;28;20110;-80
2022/07/18 04:05:38;;;;;;;6.88;3.13;;;15.30;94.60;;;;;;5069479;28;20024;-79
2022/07/18 04:08:03;;;;;;;5.68;3.20;;;15.30;94.70;;;;;;5051927;28;20025;-79
2022/07/18 04:10:29;;;;;;;7.55;3.30;;;15.30;94.70;;;;;;5051529;28;20631;-78
2022/07/18 04:12:55;;;;;;;6.75;3.10;;;15.30;94.60;;;;;;5051798;28;20067;-79
2022/07/18 04:15:23;;;;;;;5.70;2.70;;;15.30;94.50;;;;;;5069728;28;20024;-80
2022/07/18 04:17:48;;;;;;;4.90;2.67;;;15.40;94.50;;;;;;5051901;28;20048;-82
2022/07/18 04:20:15;;;;;;;3.97;2.45;;;15.40;94.40;;;;;;5070155;28;20416;-79
2022/07/18 04:22:52;;;;;;;4.68;2.50;;;15.40;94.50;;;;;;5069633;28;20028;-78
2022/07/18 04:25:20;;;;;;;6.47;3.22;;;15.40;94.50;;;;;;5050926;28;20029;-79
2022/07/18 04:27:47;;;;;;;8.00;3.00;;;15.50;94.60;;;;;;5051714;28;20037;-81
2022/07/18 04:30:15;;;;;;;5.70;3.05;;;15.50;94.60;;;;;;5055378;28;20059;-79
2022/07/18 04:32:41;;;;;;;6.43;3.25;;;15.50;94.70;;;;;;5055333;28;20059;-79
2022/07/18 04:35:08;;;;;;;8.07;3.70;;;15.60;94.70;;;;;;5073551;28;20036;-82
2022/07/18 04:37:33;;;;;;;6.60;3.13;;;15.60;94.60;;;;;;5055077;28;20032;-83
2022/07/18 04:40:03;;;;;;;7.05;3.08;;;15.60;94.70;;;;;;5073705;28;20052;-79
2022/07/18 04:42:30;;;;;;;10.27;3.85;;;15.70;94.60;;;;;;5073168;28;20041;-78
2022/07/18 04:44:56;;;;;;;8.23;3.00;;;15.70;94.50;;;;;;5073594;28;20046;-79
2022/07/18 04:47:22;;;;;;;7.00;3.20;;;15.80;94.50;;;;;;5054782;28;20024;-79
2022/07/18 04:49:47;;;;;;;5.28;2.80;;;15.80;94.40;;;;;;5073472;28;20398;-80
2022/07/18 04:52:13;;;;;;;4.88;2.72;;;15.90;94.40;;;;;;5072847;28;20033;-78
2022/07/18 04:54:38;;;;;;;6.30;2.55;;;15.90;94.30;;;;;;5073562;28;20116;-79
2022/07/18 04:57:04;;;;;;;8.10;3.05;;;16.00;94.30;;;;;;5072851;28;20029;-78
2022/07/18 04:59:29;;;;;;;4.82;2.50;;;16.10;94.20;;;;;;5073105;28;20036;-78
2022/07/18 05:01:55;;;;;;;4.35;2.40;;;16.20;94.30;;;;;;5073135;28;20044;-78
2022/07/18 05:04:20;;;;;;;12.80;2.72;;;16.20;94.20;;;;;;5054914;28;20029;-78
2022/07/18 05:06:46;;;;;;;5.18;1.90;;;16.30;94.10;;;;;;5072768;28;20083;-83
2022/07/18 05:09:11;;;;;;;8.60;2.05;;;16.40;94.10;;;;;;5072421;28;20043;-78
2022/07/18 05:11:36;;;;;;;4.93;1.88;;;16.50;94.00;;;;;;5054213;28;20037;-80
2022/07/18 05:14:02;;;;;;;6.57;2.17;;;16.60;93.80;;;;;;5055237;28;20036;-78
2022/07/18 05:16:27;;;;;;;6.00;1.73;;;16.70;93.70;;;;;;5054401;28;20106;-78
2022/07/18 05:18:53;;;;;;;4.95;1.60;;;16.80;93.60;;;;;;5054986;28;20108;-79
2022/07/18 05:21:18;;;;;;;6.07;1.88;;;16.90;93.50;;;;;;5054500;28;20489;-79
2022/07/18 05:23:45;;;;;;;7.55;2.47;;;17.00;93.40;;;;;;5054399;28;20033;-78
2022/07/18 05:26:11;;;;;;;5.05;1.70;;;17.10;93.30;;;;;;5053771;28;20485;-78
2022/07/18 05:28:37;;;;;;;6.72;2.67;;;17.20;93.10;;;;;;5072641;28;20479;-78
2022/07/18 05:31:02;;;;;;;6.35;1.85;;;17.30;93.10;;;;;;5054300;28;20032;-79
2022/07/18 05:33:28;;;;;;;5.68;2.13;;;17.40;93.00;;;;;;5072523;28;20028;-80
2022/07/18 05:35:53;;;;;;;9.95;2.30;;;17.50;93.00;;;;;;5053903;28;20029;-80
2022/07/18 05:38:18;;;;;;;7.15;2.05;;;17.50;92.80;;;;;;5054229;28;20035;-78
2022/07/18 05:40:44;;;;;;;6.63;1.67;;;17.60;92.70;;;;;;5071978;28;20060;-79
2022/07/18 05:43:09;;;;;;;5.53;2.30;;;17.70;92.60;;;;;;5072652;28;20031;-79
2022/07/18 05:45:35;;;;;;;6.68;1.45;;;17.90;92.20;;;;;;5053584;28;20029;-79
2022/07/18 05:48:01;;;;;;;6.60;1.60;;;17.90;92.00;;;;;;5072689;28;20481;-80
2022/07/18 05:50:27;;;;;;;8.25;1.75;;;18.10;92.10;;;;;;5071974;28;20041;-80
2022/07/18 05:52:52;;;;;;;4.95;1.92;;;18.20;92.00;;;;;;5071958;28;20033;-78
2022/07/18 05:55:18;;;;;;;6.63;1.58;;;18.30;92.00;;;;;;5053739;28;20391;-78
2022/07/18 05:57:43;;;;;;;2.95;1.25;;;18.40;91.40;;;;;;5053936;28;20031;-79
2022/07/18 06:00:10;;;;;;;3.53;1.55;;;18.50;91.10;;;;;;5072179;28;20047;-78
2022/07/18 06:02:36;;;;;;;7.53;1.65;;;18.60;90.80;;;;;;5053345;28;20035;-79
2022/07/18 06:05:03;;;;;;;9.60;2.38;;;18.60;90.60;;;;;;5071940;28;20037;-81
2022/07/18 06:07:29;;;;;;;9.98;1.65;;;18.80;90.50;;;;;;5071053;28;20034;-79
2022/07/18 06:09:54;;;;;;;4.20;1.67;;;18.90;90.10;;;;;;5071812;28;20476;-79
2022/07/18 06:12:21;;;;;;;5.60;1.52;;;18.90;89.50;;;;;;5071458;28;20031;-79
2022/07/18 06:14:46;;;;;;;7.63;1.20;;;19.10;88.00;;;;;;5087425;28;20056;-79
2022/07/18 06:17:12;;;;;;;3.78;1.48;;;19.20;87.60;;;;;;5053146;28;20063;-80
2022/07/18 06:19:39;;;;;;;3.88;1.35;;;19.20;87.70;;;;;;5071669;28;20459;-77
2022/07/18 06:22:04;;;;;;;5.05;1.30;;;19.30;87.70;;;;;;5053278;28;20078;-78
2022/07/18 06:24:30;;;;;;;9.43;1.20;;;19.40;87.70;;;;;;5072111;28;20048;-79
2022/07/18 06:26:56;;;;;;;3.22;1.35;;;19.40;86.90;;;;;;5070978;28;20032;-79
2022/07/18 06:29:21;;;;;;;5.05;1.88;;;19.50;86.40;;;;;;5071547;28;20124;-78
2022/07/18 06:31:47;;;;;;;8.18;1.17;;;19.60;86.20;;;;;;5071034;28;20650;-81
2022/07/18 06:34:12;;;;;;;4.95;1.10;;;19.70;86.10;;;;;;5071221;28;20127;-77
2022/07/18 06:36:38;;;;;;;8.55;1.35;;;19.80;84.80;;;;;;5070290;28;20041;-78
2022/07/18 06:39:08;;;;;;;6.75;1.67;;;19.90;84.20;;;;;;5071320;28;20109;-78
2022/07/18 06:41:34;;;;;;;10.30;1.55;;;20.00;83.50;;;;;;5052897;28;20033;-78
2022/07/18 06:43:59;;;;;;;8.15;2.40;;;20.10;82.90;;;;;;5071449;28;20043;-77
2022/07/18 06:46:25;;;;;;;3.83;1.10;;;20.20;82.80;;;;;;5070778;28;20032;-79
2022/07/18 06:48:50;;;;;;;13.55;2.30;;;20.30;83.00;;;;;;5053260;28;20454;-78
2022/07/18 06:51:16;;;;;;;6.55;1.23;;;20.40;82.70;;;;;;5052258;28;20041;-78
2022/07/18 06:53:41;;;;;;;12.70;1.33;;;20.50;82.40;;;;;;5071897;28;20031;-81
2022/07/18 06:56:07;;;;;;;4.15;1.42;;;20.60;82.00;;;;;;5055564;28;20033;-78
2022/07/18 06:58:33;;;;;;;8.85;1.38;;;20.80;82.60;;;;;;5073757;28;20257;-78
2022/07/18 07:00:59;;;;;;;7.15;1.20;;;20.90;80.80;;;;;;5074194;28;20025;-76
2022/07/18 07:03:24;;;;;;;8.05;1.17;;;21.00;79.20;;;;;;5073381;28;20102;-78
2022/07/18 07:05:50;;;;;;;6.80;1.55;;;21.10;78.20;;;;;;5070863;28;20394;-78
2022/07/18 07:08:15;;;;;;;4.53;1.10;;;21.30;76.70;;;;;;5070949;28;20458;-78
2022/07/18 07:10:41;;;;;;;4.38;1.08;;;21.40;76.70;;;;;;5070685;28;20036;-79
2022/07/18 07:13:06;;;;;;;2.80;0.93;;;21.50;76.70;;;;;;5070645;28;20054;-82
2022/07/18 07:15:32;;;;;;;3.05;1.17;;;21.70;76.10;;;;;;5070107;28;20032;-79
2022/07/18 07:17:58;;;;;;;4.18;1.10;;;21.90;75.90;;;;;;5052765;28;20025;-79
2022/07/18 07:20:24;;;;;;;7.43;1.23;;;22.10;74.20;;;;;;5070583;28;20116;-78
2022/07/18 07:22:52;;;;;;;10.20;1.80;;;22.30;72.80;;;;;;5070603;28;20110;-79
2022/07/18 07:25:19;;;;;;;8.80;1.30;;;22.40;71.00;;;;;;5069677;28;20470;-78
2022/07/18 07:27:45;;;;;;;8.52;0.90;;;22.60;68.70;;;;;;5070473;28;20494;-78
2022/07/18 07:30:12;;;;;;;7.25;1.50;;;22.80;68.40;;;;;;5070440;28;20042;-78
2022/07/18 07:32:41;;;;;;;5.97;0.93;;;22.90;68.60;;;;;;5069858;28;20481;-79
2022/07/18 07:35:10;;;;;;;5.18;0.93;;;23.10;66.70;;;;;;5069997;28;20052;-78
2022/07/18 07:37:37;;;;;;;4.50;0.90;;;23.20;68.40;;;;;;5069775;28;20028;-79
2022/07/18 07:40:03;;;;;;;3.08;0.90;;;23.40;68.30;;;;;;5052200;28;20116;-80
2022/07/18 07:42:28;;;;;;;6.35;0.82;;;23.40;65.60;;;;;;5051708;28;20028;-81
2022/07/18 07:44:54;;;;;;;3.33;0.80;;;23.60;67.10;;;;;;5052403;28;20378;-78
2022/07/18 07:47:19;;;;;;;4.63;0.85;;;23.70;62.60;;;;;;5069304;28;20028;-79
2022/07/18 07:49:45;;;;;;;4.22;0.70;;;23.80;61.60;;;;;;5070192;28;20082;-79
2022/07/18 07:52:13;;;;;;;3.55;0.88;;;23.80;61.70;;;;;;5069715;28;20481;-81
2022/07/18 07:54:39;;;;;;;4.53;1.13;;;24.00;62.50;;;;;;5070167;28;20028;-80
2022/07/18 07:57:05;;;;;;;3.20;0.60;;;24.20;62.50;;;;;;5069378;28;20489;-79
2022/07/18 07:59:31;;;;;;;6.20;0.80;;;24.40;61.90;;;;;;5070359;28;20032;-79
2022/07/18 08:01:57;;;;;;;1.88;0.63;;;24.70;63.40;;;;;;5069598;28;20347;-77
2022/07/18 08:04:23;;;;;;;13.75;0.77;;;24.80;61.30;;;;;;5068831;28;20037;-80
2022/07/18 08:06:48;;;;;;;3.97;0.80;;;25.00;61.80;;;;;;5051583;28;20059;-80
2022/07/18 08:09:14;;;;;;;8.27;0.70;;;25.10;61.80;;;;;;5069411;28;20468;-79
2022/07/18 08:11:40;;;;;;;4.65;1.20;;;25.30;61.20;;;;;;5069816;28;20489;-83
2022/07/18 08:14:06;;;;;;;5.38;1.10;;;25.50;61.00;;;;;;5051724;28;20367;-78
2022/07/18 08:16:31;;;;;;;7.95;0.80;;;25.70;59.10;;;;;;5051155;28;20059;-80
2022/07/18 08:18:57;;;;;;;3.97;0.85;;;25.90;58.90;;;;;;5051984;28;20465;-78
2022/07/18 08:21:22;;;;;;;7.70;0.93;;;26.00;58.00;;;;;;5069699;28;20075;-86
2022/07/18 08:23:48;;;;;;;6.32;0.90;;;26.20;57.70;;;;;;5051591;28;20082;-81
2022/07/18 08:26:14;;;;;;;5.18;0.70;;;26.30;57.40;;;;;;5068908;28;20024;-80
2022/07/18 08:28:39;;;;;;;5.30;0.63;;;26.50;56.10;;;;;;5069765;28;20039;-77
2022/07/18 08:31:05;;;;;;;3.42;0.63;;;26.60;56.20;;;;;;5069041;28;20046;-83
2022/07/18 08:33:30;;;;;;;2.92;1.10;;;26.80;56.70;;;;;;5068715;28;20032;-82
2022/07/18 08:35:56;;;;;;;5.65;0.75;;;26.90;53.30;;;;;;5068623;28;20028;-79
2022/07/18 08:38:21;;;;;;;5.82;0.60;;;27.00;54.70;;;;;;5051526;28;20032;-80
2022/07/18 08:40:47;;;;;;;6.82;0.77;;;27.10;55.40;;;;;;5051280;28;20090;-80
2022/07/18 08:43:14;;;;;;;1.25;0.55;;;27.30;53.70;;;;;;5085061;28;20370;-79
2022/07/18 08:45:42;;;;;;;3.38;0.52;;;27.40;53.00;;;;;;5050870;28;20394;-82
2022/07/18 08:48:08;;;;;;;5.18;0.73;;;27.50;52.60;;;;;;5069198;28;20033;-82
2022/07/18 08:50:34;;;;;;;3.15;0.55;;;27.60;54.10;;;;;;5051156;28;20037;-81
2022/07/18 08:53:01;;;;;;;2.13;0.60;;;27.70;52.80;;;;;;5069120;28;20493;-79
2022/07/18 08:55:27;;;;;;;3.92;1.05;;;27.80;51.70;;;;;;5068613;28;20074;-79
2022/07/18 08:57:53;;;;;;;4.63;0.70;;;27.90;54.00;;;;;;5069834;28;20037;-79
2022/07/18 09:00:20;;;;;;;5.15;0.75;;;27.90;51.00;;;;;;5069666;28;20040;-80
2022/07/18 09:02:46;;;;;;;5.10;0.80;;;28.00;51.10;;;;;;5068695;28;20027;-82
2022/07/18 09:05:20;;;;;;;2.83;0.70;;;28.10;52.20;;;;;;5050964;28;20397;-83
2022/07/18 09:07:45;;;;;;;8.65;1.17;;;28.20;54.60;;;;;;5051172;28;20092;-83
2022/07/18 09:10:11;;;;;;;3.53;0.68;;;28.30;53.20;;;;;;5050802;28;20048;-83
2022/07/18 09:12:36;;;;;;;1.73;0.47;;;28.40;48.90;;;;;;5069019;28;20492;-81
2022/07/18 09:15:07;;;;;;;3.72;0.60;;;28.50;50.90;;;;;;5071249;28;20297;-82
2022/07/18 09:17:34;;;;;;;4.93;0.70;;;28.60;51.70;;;;;;5072206;28;20048;-82
2022/07/18 09:20:11;;;;;;;3.05;0.40;;;28.70;48.60;;;;;;5055098;28;20025;-83
2022/07/18 09:22:39;;;;;;;2.20;0.45;;;28.70;49.00;;;;;;5054333;28;20055;-80
2022/07/18 09:25:21;;;;;;;4.15;0.80;;;28.80;49.70;;;;;;5054538;28;20527;-80
2022/07/18 09:27:48;;;;;;;1.73;0.40;;;29.00;48.10;;;;;;5088362;28;20485;-80
2022/07/18 09:30:26;;;;;;;5.05;0.90;;;29.00;50.20;;;;;;5072566;28;20082;-80
2022/07/18 09:33:03;;;;;;;4.38;0.45;;;29.10;47.60;;;;;;5072343;28;20036;-79
2022/07/18 09:35:35;;;;;;;3.08;0.75;;;29.30;47.30;;;;;;5072115;28;20028;-80
2022/07/18 09:38:12;;;;;;;2.08;0.60;;;29.30;46.10;;;;;;5054695;28;20028;-81
2022/07/18 09:40:57;;;;;;;1.25;0.60;;;29.40;47.70;;;;;;5072025;28;20041;-78
2022/07/18 09:43:24;;;;;;;1.48;0.47;;;29.60;50.10;;;;;;5071939;28;20044;-79
2022/07/18 09:45:53;;;;;;;2.63;0.45;;;29.70;51.10;;;;;;5071863;28;20031;-79
2022/07/18 09:48:24;;;;;;;3.92;0.68;;;29.90;48.00;;;;;;5054495;28;20031;-79
2022/07/18 09:50:59;;;;;;;2.55;0.77;;;30.00;47.00;;;;;;5072045;28;20082;-80
2022/07/18 09:53:50;;;;;;;2.65;0.90;;;30.10;48.00;;;;;;5072255;28;20093;-82
2022/07/18 09:56:23;;;;;;;6.00;0.68;;;30.20;47.40;;;;;;5067623;28;20045;-77
2022/07/18 09:58:54;;;;;;;4.35;0.93;;;30.20;46.70;;;;;;5072047;28;20052;-81
2022/07/18 10:01:20;;;;;;;2.80;0.80;;;30.20;45.30;;;;;;5053275;28;20025;-79
2022/07/18 10:03:46;;;;;;;2.75;1.23;;;30.10;46.40;;;;;;5072497;28;20036;-80
2022/07/18 10:06:12;;;;;;;2.05;0.60;;;30.20;45.80;;;;;;5053522;28;20024;-82
2022/07/18 10:08:38;;;;;;;5.80;1.10;;;30.30;44.90;;;;;;5072026;28;20032;-78
2022/07/18 10:11:06;;;;;;;6.43;1.23;;;30.40;45.60;;;;;;5053332;28;20028;-79
2022/07/18 10:13:33;;;;;;;1.67;0.70;;;30.50;45.10;;;;;;5054372;28;20067;-79
2022/07/18 10:15:59;;;;;;;3.75;1.20;;;30.50;44.50;;;;;;5053601;28;20024;-81
2022/07/18 10:18:30;;;;;;;2.55;0.98;;;30.60;44.80;;;;;;5072242;28;20043;-81
2022/07/18 10:21:02;;;;;;;2.28;0.80;;;30.50;45.70;;;;;;5075357;28;20021;-81
2022/07/18 10:23:30;;;;;;;;;;;30.60;45.10;;;;;;5059975;28;20024;-78
2022/07/18 10:26:15;;;;;;;3.10;1.00;;;30.50;43.50;;;;;;5075490;28;19931;-79
2022/07/18 10:28:55;;;;;;;3.90;0.73;;;30.40;43.60;;;;;;5071938;28;20033;-80
2022/07/18 10:31:22;;;;;;;1.60;1.00;;;30.20;43.90;;;;;;5053299;28;20076;-79
2022/07/18 10:33:48;;;;;;;5.28;1.15;;;30.00;43.50;;;;;;5071665;28;20079;-82
2022/07/18 10:36:15;;;;;;;2.78;1.10;;;30.00;45.00;;;;;;5052871;28;20099;-79
2022/07/18 10:39:14;;;;;;;3.50;1.23;;;30.10;45.10;;;;;;5053406;28;20024;-78
2022/07/18 10:41:42;;;;;;;2.85;1.25;;;29.90;44.10;;;;;;5071130;28;20028;-80
2022/07/18 10:44:23;;;;;;;4.60;1.30;;;30.00;44.10;;;;;;5071461;28;20426;-81
2022/07/18 10:47:03;;;;;;;4.60;1.58;;;30.30;43.60;;;;;;5070861;28;20129;-81
2022/07/18 10:49:50;;;;;;;2.60;1.00;;;30.50;44.50;;;;;;5053246;28;20020;-80
2022/07/18 10:52:27;;;;;;;3.65;1.30;;;30.80;46.30;;;;;;5052651;28;20032;-80
2022/07/18 10:57:30;;;;;;;4.18;1.27;;;31.10;47.50;;;;;;5070286;28;20462;-79
2022/07/18 11:00:04;;;;;;;2.28;1.30;;;31.30;45.70;;;;;;5053088;28;20466;-81
2022/07/18 11:02:32;;;;;;;6.65;1.13;;;31.30;43.10;;;;;;5085943;28;20800;-83
2022/07/18 11:04:58;;;;;;;3.15;1.40;;;31.40;44.10;;;;;;5070959;28;20033;-81
2022/07/18 11:07:24;;;;;;;2.20;1.17;;;31.40;42.90;;;;;;5070192;28;20366;-81
2022/07/18 11:09:50;;;;;;;2.50;1.33;;;31.40;44.30;;;;;;5052288;28;20028;-81
2022/07/18 11:12:31;;;;;;;4.38;1.40;;;31.40;42.70;;;;;;5070448;28;20032;-80
2022/07/18 11:15:10;;;;;;;3.23;1.50;;;31.20;43.00;;;;;;5052813;28;20120;-81
2022/07/18 11:17:51;;;;;;;4.38;2.10;;;31.20;44.00;;;;;;5052073;28;20653;-79
2022/07/18 11:20:40;;;;;;;2.67;1.05;;;31.40;43.20;;;;;;5052491;28;20047;-81
2022/07/18 11:23:23;;;;;;;2.60;0.90;;;31.30;42.50;;;;;;5070303;28;20052;-82
2022/07/18 11:25:51;;;;;;;3.58;1.08;;;31.40;45.20;;;;;;5069162;28;20482;-77
2022/07/18 11:28:18;;;;;;;2.58;1.10;;;31.60;43.00;;;;;;5052422;28;20496;-79
2022/07/18 11:30:45;;;;;;;2.55;1.02;;;31.70;42.40;;;;;;5052010;28;20474;-78
2022/07/18 11:33:26;;;;;;;3.90;1.13;;;31.60;42.60;;;;;;5070719;28;20032;-79
2022/07/18 11:35:51;;;;;;;2.15;0.88;;;31.70;43.50;;;;;;5070000;28;20055;-80
2022/07/18 11:38:17;;;;;;;3.33;1.15;;;31.70;43.70;;;;;;5051836;28;20078;-78
2022/07/18 11:40:51;;;;;;;4.18;1.02;;;31.90;43.50;;;;;;5051293;28;20032;-80
2022/07/18 11:43:21;;;;;;;4.43;1.13;;;32.00;42.60;;;;;;5070211;28;20067;-83
2022/07/18 11:45:47;;;;;;;1.77;1.00;;;32.10;44.80;;;;;;5051635;28;20033;-80
2022/07/18 11:48:21;;;;;;;4.00;1.17;;;32.20;43.40;;;;;;5052210;28;20035;-80
2022/07/18 11:50:47;;;;;;;3.95;1.52;;;32.40;45.10;;;;;;5051890;28;20127;-83
2022/07/18 11:53:14;;;;;;;3.95;1.52;;;32.50;42.60;;;;;;5069616;28;20159;-79
2022/07/18 11:55:39;;;;;;;2.33;1.13;;;32.60;41.50;;;;;;5069538;28;20071;-80
2022/07/18 11:58:16;;;;;;;7.50;1.40;;;32.70;42.60;;;;;;5070089;28;20460;-83
2022/07/18 12:00:42;;;;;;;2.97;1.17;;;32.70;42.60;;;;;;5070150;28;20024;-79
2022/07/18 12:03:10;;;;;;;2.38;0.93;;;32.80;41.50;;;;;;5069990;28;20021;-81
2022/07/18 12:05:48;;;;;;;5.47;1.35;;;32.90;41.40;;;;;;5050915;28;20119;-80
2022/07/18 12:08:40;;;;;;;3.20;1.20;;;32.90;41.20;;;;;;5069981;28;20025;-81
2022/07/18 12:11:19;;;;;;;1.97;1.57;;;32.90;43.00;;;;;;5069532;28;20032;-83
2022/07/18 12:13:46;;;;;;;2.58;1.40;;;33.00;44.70;;;;;;5070175;28;20350;-81
2022/07/18 12:16:31;;;;;;;2.55;1.30;;;33.20;43.00;;;;;;5069288;28;20100;-81
2022/07/18 12:19:08;;;;;;;1.83;1.05;;;33.40;41.60;;;;;;5052024;28;20638;-82
2022/07/18 12:21:54;;;;;;;1.98;1.23;;;33.60;42.20;;;;;;5051653;28;20032;-80
2022/07/18 12:24:34;;;;;;;1.65;0.73;;;33.70;43.30;;;;;;5069602;28;20036;-79
2022/07/18 12:27:16;;;;;;;1.63;1.02;;;33.70;44.90;;;;;;5069363;28;20100;-85
2022/07/18 12:29:59;;;;;;;3.58;0.98;;;33.80;43.10;;;;;;5052273;28;20044;-83
2022/07/18 12:32:29;;;;;;;2.90;1.10;;;33.90;41.20;;;;;;5069046;28;20039;-81
2022/07/18 12:35:00;;;;;;;1.95;0.70;;;33.70;42.20;;;;;;5069926;28;20033;-81
2022/07/18 12:37:27;;;;;;;1.25;0.70;;;33.70;41.90;;;;;;5068725;28;20058;-81
2022/07/18 12:40:03;;;;;;;5.30;0.93;;;33.60;42.80;;;;;;5070051;28;20383;-83
2022/07/18 12:42:31;;;;;;;5.28;1.00;;;33.50;41.40;;;;;;5069280;28;20094;-80
2022/07/18 12:44:59;;;;;;;2.75;0.70;;;33.30;42.20;;;;;;5051526;28;20035;-81
2022/07/18 12:47:25;;;;;;;7.95;0.93;;;33.10;41.60;;;;;;5068692;28;20612;-81
2022/07/18 12:49:50;;;;;;;3.42;0.73;;;33.10;41.70;;;;;;5070888;28;20024;-81
2022/07/18 12:52:17;;;;;;;4.75;1.00;;;33.10;42.60;;;;;;5072891;28;20657;-83
2022/07/18 12:54:43;;;;;;;2.85;1.02;;;33.10;42.70;;;;;;5073356;28;20104;-81
2022/07/18 12:57:08;;;;;;;6.80;1.38;;;33.00;42.00;;;;;;5054895;28;20111;-79